KBTR

Baton Rouge Metropolitan, Ryan Field Airport

Baton Rouge, Louisiana, USA
METAR KBTR 210353Z 17008KT 10SM CLR 26/23 A3004 RMK AO2 SLP169 T02610233
Observed Flight Rules
Aug-21 @ 03:53 UTC (17 minutes ago) Visual Flight Rules
Wind Visibility Clouds
170° at 8 knots 10 miles
  • Clear skies
Temperatures Readings
Current 26°C / 79°F
Dewpoint 23°C / 73°F
Humidity 84%
Altimeter 30.04" Hg
Pressure 1016.9 hPa
Elevation 21
METAR KBTR 210353Z 17008KT 10SM CLR 26/23 A3004 RMK AO2 SLP169 T02610233
Observed Flight Rules
Aug-21 @ 03:53 UTC
(17 minutes ago)
VFR
Wind Visibility
170° at 8 knots 10 miles
Clouds
  • Clear skies
Temperature Dewpoint
26°C / 79°F 23°C / 73°F
Humidity Altimeter Pressure
84% 30.04" Hg 1016.9 hPa